sensor_id;sensor_type;location;lat;lon;timestamp;pressure;altitude;pressure_sealevel;temperature;humidity
20656;BME280;10487;53.320;8.672;2023-04-24T00:00:23;99646.06;;;9.74;48.79
20656;BME280;10487;53.320;8.672;2023-04-24T00:03:25;99649.44;;;9.76;48.87
20656;BME280;10487;53.320;8.672;2023-04-24T00:06:29;99641.31;;;9.77;48.90
20656;BME280;10487;53.320;8.672;2023-04-24T00:09:34;99639.50;;;9.78;48.93
20656;BME280;10487;53.320;8.672;2023-04-24T00:12:36;99636.84;;;9.78;49.03
20656;BME280;10487;53.320;8.672;2023-04-24T00:15:38;99633.19;;;9.79;49.06
20656;BME280;10487;53.320;8.672;2023-04-24T00:18:39;99624.22;;;9.80;48.96
20656;BME280;10487;53.320;8.672;2023-04-24T00:21:41;99630.25;;;9.82;49.03
20656;BME280;10487;53.320;8.672;2023-04-24T00:24:43;99622.25;;;9.82;49.14
20656;BME280;10487;53.320;8.672;2023-04-24T00:27:44;99625.78;;;9.82;48.88
20656;BME280;10487;53.320;8.672;2023-04-24T00:30:46;99614.97;;;9.84;49.17
20656;BME280;10487;53.320;8.672;2023-04-24T00:33:48;99615.13;;;9.82;49.17
20656;BME280;10487;53.320;8.672;2023-04-24T00:37:07;99610.91;;;9.80;49.13
20656;BME280;10487;53.320;8.672;2023-04-24T00:40:27;99620.84;;;9.78;49.20
20656;BME280;10487;53.320;8.672;2023-04-24T00:43:47;99620.97;;;9.76;49.28
20656;BME280;10487;53.320;8.672;2023-04-24T00:47:07;99615.59;;;9.97;49.40
20656;BME280;10487;53.320;8.672;2023-04-24T00:50:26;99605.34;;;10.02;49.25
20656;BME280;10487;53.320;8.672;2023-04-24T00:53:46;99609.97;;;10.00;49.28
20656;BME280;10487;53.320;8.672;2023-04-24T00:57:05;99612.22;;;9.95;49.34
20656;BME280;10487;53.320;8.672;2023-04-24T01:00:25;99609.97;;;9.90;49.33
20656;BME280;10487;53.320;8.672;2023-04-24T01:03:44;99612.19;;;9.85;49.28
20656;BME280;10487;53.320;8.672;2023-04-24T01:07:04;99611.59;;;9.82;49.30
20656;BME280;10487;53.320;8.672;2023-04-24T01:10:29;99607.53;;;9.78;49.29
20656;BME280;10487;53.320;8.672;2023-04-24T01:13:49;99615.78;;;9.75;49.33
20656;BME280;10487;53.320;8.672;2023-04-24T01:17:08;99610.88;;;9.70;49.32
20656;BME280;10487;53.320;8.672;2023-04-24T01:20:28;99603.41;;;9.64;49.30
20656;BME280;10487;53.320;8.672;2023-04-24T01:23:48;99608.44;;;9.58;49.40
20656;BME280;10487;53.320;8.672;2023-04-24T01:27:09;99600.00;;;9.53;49.44
20656;BME280;10487;53.320;8.672;2023-04-24T01:30:29;99607.41;;;9.49;49.44
20656;BME280;10487;53.320;8.672;2023-04-24T01:33:49;99600.81;;;9.44;49.28
20656;BME280;10487;53.320;8.672;2023-04-24T01:37:08;99579.78;;;9.41;49.45
20656;BME280;10487;53.320;8.672;2023-04-24T01:40:28;99584.41;;;9.39;49.44
20656;BME280;10487;53.320;8.672;2023-04-24T01:43:48;99594.19;;;9.38;49.41
20656;BME280;10487;53.320;8.672;2023-04-24T01:47:07;99580.28;;;9.35;49.39
20656;BME280;10487;53.320;8.672;2023-04-24T01:50:26;99580.44;;;9.33;49.38
20656;BME280;10487;53.320;8.672;2023-04-24T01:53:46;99579.72;;;9.31;49.45
20656;BME280;10487;53.320;8.672;2023-04-24T01:57:05;99570.91;;;9.31;49.49
20656;BME280;10487;53.320;8.672;2023-04-24T02:00:24;99573.56;;;9.31;49.52
20656;BME280;10487;53.320;8.672;2023-04-24T02:03:43;99569.09;;;9.31;49.38
20656;BME280;10487;53.320;8.672;2023-04-24T02:07:02;99576.22;;;9.31;49.32
20656;BME280;10487;53.320;8.672;2023-04-24T02:10:21;99569.16;;;9.29;49.40
20656;BME280;10487;53.320;8.672;2023-04-24T02:13:40;99572.94;;;9.27;49.38
20656;BME280;10487;53.320;8.672;2023-04-24T02:16:59;99566.75;;;9.26;49.52
20656;BME280;10487;53.320;8.672;2023-04-24T02:20:19;99567.88;;;9.24;49.51
20656;BME280;10487;53.320;8.672;2023-04-24T02:23:38;99560.19;;;9.21;49.45
20656;BME280;10487;53.320;8.672;2023-04-24T02:26:57;99567.31;;;9.20;49.46
20656;BME280;10487;53.320;8.672;2023-04-24T02:30:16;99573.75;;;9.18;49.48
20656;BME280;10487;53.320;8.672;2023-04-24T02:33:35;99554.41;;;9.16;49.47
20656;BME280;10487;53.320;8.672;2023-04-24T02:36:54;99565.06;;;9.16;49.59
20656;BME280;10487;53.320;8.672;2023-04-24T02:40:14;99562.25;;;9.17;49.41
20656;BME280;10487;53.320;8.672;2023-04-24T02:43:33;99553.56;;;9.15;49.54
20656;BME280;10487;53.320;8.672;2023-04-24T02:46:52;99558.88;;;9.15;49.55
20656;BME280;10487;53.320;8.672;2023-04-24T02:50:11;99547.38;;;9.15;49.59
20656;BME280;10487;53.320;8.672;2023-04-24T02:53:30;99548.38;;;9.14;49.47
20656;BME280;10487;53.320;8.672;2023-04-24T02:56:49;99551.84;;;9.14;49.60
20656;BME280;10487;53.320;8.672;2023-04-24T03:00:09;99580.16;;;9.15;49.61
20656;BME280;10487;53.320;8.672;2023-04-24T03:03:28;99558.03;;;9.15;49.49
20656;BME280;10487;53.320;8.672;2023-04-24T03:06:47;99558.44;;;9.10;49.60
20656;BME280;10487;53.320;8.672;2023-04-24T03:10:07;99553.09;;;9.10;49.58
20656;BME280;10487;53.320;8.672;2023-04-24T03:13:26;99550.44;;;9.10;49.53
20656;BME280;10487;53.320;8.672;2023-04-24T03:16:45;99565.56;;;9.10;49.53
20656;BME280;10487;53.320;8.672;2023-04-24T03:20:05;99571.03;;;9.08;49.52
20656;BME280;10487;53.320;8.672;2023-04-24T03:23:24;99569.34;;;9.07;49.63
20656;BME280;10487;53.320;8.672;2023-04-24T03:26:43;99564.16;;;9.06;49.61
20656;BME280;10487;53.320;8.672;2023-04-24T03:30:02;99559.78;;;9.05;49.71
20656;BME280;10487;53.320;8.672;2023-04-24T03:33:21;99568.88;;;9.02;49.68
20656;BME280;10487;53.320;8.672;2023-04-24T03:36:40;99567.31;;;9.00;49.61
20656;BME280;10487;53.320;8.672;2023-04-24T03:40:00;99573.63;;;8.99;49.69
20656;BME280;10487;53.320;8.672;2023-04-24T03:43:20;99563.25;;;8.96;49.56
20656;BME280;10487;53.320;8.672;2023-04-24T03:46:39;99567.03;;;8.93;49.80
20656;BME280;10487;53.320;8.672;2023-04-24T03:49:58;99573.31;;;8.92;49.85
20656;BME280;10487;53.320;8.672;2023-04-24T03:53:17;99566.41;;;8.90;49.87
20656;BME280;10487;53.320;8.672;2023-04-24T03:56:36;99572.72;;;8.89;49.74
20656;BME280;10487;53.320;8.672;2023-04-24T03:59:55;99568.22;;;8.89;49.75
20656;BME280;10487;53.320;8.672;2023-04-24T04:03:14;99567.53;;;8.87;49.77
20656;BME280;10487;53.320;8.672;2023-04-24T04:06:35;99573.84;;;8.86;49.89
20656;BME280;10487;53.320;8.672;2023-04-24T04:09:55;99572.28;;;8.84;49.87
20656;BME280;10487;53.320;8.672;2023-04-24T04:13:14;99565.41;;;8.81;49.79
20656;BME280;10487;53.320;8.672;2023-04-24T04:16:33;99576.03;;;8.81;49.90
20656;BME280;10487;53.320;8.672;2023-04-24T04:19:51;99576.03;;;8.81;49.88
20656;BME280;10487;53.320;8.672;2023-04-24T04:23:11;99574.22;;;8.82;49.87
20656;BME280;10487;53.320;8.672;2023-04-24T04:26:30;99567.06;;;8.82;50.10
20656;BME280;10487;53.320;8.672;2023-04-24T04:29:51;99573.25;;;8.83;49.98
20656;BME280;10487;53.320;8.672;2023-04-24T04:33:10;99578.56;;;8.83;50.00
20656;BME280;10487;53.320;8.672;2023-04-24T04:36:29;99578.56;;;8.83;49.94
20656;BME280;10487;53.320;8.672;2023-04-24T04:39:48;99580.13;;;8.85;49.91
20656;BME280;10487;53.320;8.672;2023-04-24T04:43:07;99579.88;;;8.88;50.02
20656;BME280;10487;53.320;8.672;2023-04-24T04:46:27;99586.16;;;8.87;49.91
20656;BME280;10487;53.320;8.672;2023-04-24T04:49:46;99590.34;;;8.90;50.08
20656;BME280;10487;53.320;8.672;2023-04-24T04:53:05;99591.22;;;8.90;49.96
20656;BME280;10487;53.320;8.672;2023-04-24T04:56:24;99588.41;;;8.92;50.06
20656;BME280;10487;53.320;8.672;2023-04-24T04:59:43;99587.59;;;8.91;50.00
20656;BME280;10487;53.320;8.672;2023-04-24T05:03:02;99589.25;;;8.92;49.89
20656;BME280;10487;53.320;8.672;2023-04-24T05:06:21;99575.97;;;8.92;50.27
20656;BME280;10487;53.320;8.672;2023-04-24T05:09:40;99583.22;;;8.90;49.95
20656;BME280;10487;53.320;8.672;2023-04-24T05:12:59;99583.22;;;8.90;50.03
20656;BME280;10487;53.320;8.672;2023-04-24T05:16:19;99582.38;;;8.90;50.09
20656;BME280;10487;53.320;8.672;2023-04-24T05:19:38;99585.03;;;8.90;50.03
20656;BME280;10487;53.320;8.672;2023-04-24T05:22:57;99591.47;;;8.87;50.05
20656;BME280;10487;53.320;8.672;2023-04-24T05:26:16;99588.00;;;8.87;49.95
20656;BME280;10487;53.320;8.672;2023-04-24T05:29:36;99592.31;;;8.88;50.07
20656;BME280;10487;53.320;8.672;2023-04-24T05:32:56;99598.47;;;8.88;50.07
20656;BME280;10487;53.320;8.672;2023-04-24T05:36:15;99601.28;;;8.87;50.08
20656;BME280;10487;53.320;8.672;2023-04-24T05:39:34;99599.44;;;8.87;50.12
20656;BME280;10487;53.320;8.672;2023-04-24T05:42:54;99601.28;;;8.87;50.06
20656;BME280;10487;53.320;8.672;2023-04-24T05:46:13;99601.28;;;8.87;50.04
20656;BME280;10487;53.320;8.672;2023-04-24T05:49:32;99613.44;;;8.89;49.99
20656;BME280;10487;53.320;8.672;2023-04-24T05:52:51;99614.91;;;8.93;50.11
20656;BME280;10487;53.320;8.672;2023-04-24T05:56:10;99625.16;;;8.98;50.23
20656;BME280;10487;53.320;8.672;2023-04-24T05:59:30;99615.34;;;8.98;50.14
20656;BME280;10487;53.320;8.672;2023-04-24T06:02:49;99625.75;;;9.01;50.19
20656;BME280;10487;53.320;8.672;2023-04-24T06:06:08;99619.44;;;9.02;50.09
20656;BME280;10487;53.320;8.672;2023-04-24T06:09:28;99629.81;;;9.05;50.07
20656;BME280;10487;53.320;8.672;2023-04-24T06:12:47;99621.59;;;9.08;50.09
20656;BME280;10487;53.320;8.672;2023-04-24T06:16:06;99623.25;;;9.09;50.04
20656;BME280;10487;53.320;8.672;2023-04-24T06:19:25;99625.56;;;9.14;50.18
20656;BME280;10487;53.320;8.672;2023-04-24T06:22:44;99621.50;;;9.19;50.31
20656;BME280;10487;53.320;8.672;2023-04-24T06:26:03;99627.28;;;9.24;50.22
20656;BME280;10487;53.320;8.672;2023-04-24T06:29:22;99624.22;;;9.29;50.15
20656;BME280;10487;53.320;8.672;2023-04-24T06:32:41;99622.19;;;9.33;50.13
20656;BME280;10487;53.320;8.672;2023-04-24T06:36:00;99632.44;;;9.37;50.15
20656;BME280;10487;53.320;8.672;2023-04-24T06:39:20;99626.84;;;9.40;50.04
20656;BME280;10487;53.320;8.672;2023-04-24T06:42:39;99645.09;;;9.45;50.26
20656;BME280;10487;53.320;8.672;2023-04-24T06:45:59;99636.84;;;9.48;50.14
20656;BME280;10487;53.320;8.672;2023-04-24T06:49:18;99634.19;;;9.48;50.14
20656;BME280;10487;53.320;8.672;2023-04-24T06:52:37;99637.94;;;9.45;50.06
20656;BME280;10487;53.320;8.672;2023-04-24T06:55:56;99636.13;;;9.46;50.14
20656;BME280;10487;53.320;8.672;2023-04-24T06:59:15;99636.84;;;9.48;50.13
20656;BME280;10487;53.320;8.672;2023-04-24T07:02:34;99640.09;;;9.51;50.14
20656;BME280;10487;53.320;8.672;2023-04-24T07:05:54;99645.28;;;9.53;50.11
20656;BME280;10487;53.320;8.672;2023-04-24T07:09:13;99644.56;;;9.51;50.09
20656;BME280;10487;53.320;8.672;2023-04-24T07:12:32;99653.53;;;9.50;50.17
20656;BME280;10487;53.320;8.672;2023-04-24T07:15:53;99642.00;;;9.49;50.13
20656;BME280;10487;53.320;8.672;2023-04-24T07:19:13;99649.19;;;9.49;50.18
20656;BME280;10487;53.320;8.672;2023-04-24T07:22:32;99644.81;;;9.48;50.16
20656;BME280;10487;53.320;8.672;2023-04-24T07:25:51;99655.47;;;9.48;50.16
20656;BME280;10487;53.320;8.672;2023-04-24T07:29:11;99649.19;;;9.49;50.16
20656;BME280;10487;53.320;8.672;2023-04-24T07:32:30;99651.84;;;9.49;50.23
20656;BME280;10487;53.320;8.672;2023-04-24T07:35:49;99655.22;;;9.51;50.18
20656;BME280;10487;53.320;8.672;2023-04-24T07:39:08;99656.47;;;9.56;50.27
20656;BME280;10487;53.320;8.672;2023-04-24T07:42:28;99665.06;;;9.60;50.21
20656;BME280;10487;53.320;8.672;2023-04-24T07:45:52;99661.16;;;9.64;50.19
20656;BME280;10487;53.320;8.672;2023-04-24T07:49:11;99664.25;;;9.69;50.20
20656;BME280;10487;53.320;8.672;2023-04-24T07:52:30;99671.28;;;9.70;50.32
20656;BME280;10487;53.320;8.672;2023-04-24T07:55:49;99671.13;;;9.71;50.22
20656;BME280;10487;53.320;8.672;2023-04-24T07:59:08;99677.75;;;9.77;50.20
20656;BME280;10487;53.320;8.672;2023-04-24T08:02:29;99686.34;;;9.80;50.15
20656;BME280;10487;53.320;8.672;2023-04-24T08:05:48;99684.25;;;9.84;50.17
20656;BME280;10487;53.320;8.672;2023-04-24T08:09:09;99682.00;;;9.89;50.12
20656;BME280;10487;53.320;8.672;2023-04-24T08:12:29;99686.94;;;9.93;50.30
20656;BME280;10487;53.320;8.672;2023-04-24T08:15:48;99692.00;;;9.97;50.33
20656;BME280;10487;53.320;8.672;2023-04-24T08:19:07;99700.84;;;9.97;50.21
20656;BME280;10487;53.320;8.672;2023-04-24T08:22:29;99705.91;;;10.00;50.18
20656;BME280;10487;53.320;8.672;2023-04-24T08:25:48;99696.94;;;10.01;50.13
20656;BME280;10487;53.320;8.672;2023-04-24T08:29:07;99704.81;;;10.03;50.15
20656;BME280;10487;53.320;8.672;2023-04-24T08:32:27;99705.38;;;10.06;50.11
20656;BME280;10487;53.320;8.672;2023-04-24T08:35:49;99710.56;;;10.08;50.05
20656;BME280;10487;53.320;8.672;2023-04-24T08:39:08;99706.91;;;10.09;50.17
20656;BME280;10487;53.320;8.672;2023-04-24T08:42:28;99704.25;;;10.09;50.16
20656;BME280;10487;53.320;8.672;2023-04-24T08:45:48;99711.13;;;10.11;50.09
20656;BME280;10487;53.320;8.672;2023-04-24T08:49:08;99715.75;;;10.09;50.15
20656;BME280;10487;53.320;8.672;2023-04-24T08:52:27;99710.69;;;10.06;49.89
20656;BME280;10487;53.320;8.672;2023-04-24T08:55:48;99710.00;;;10.04;50.07
20656;BME280;10487;53.320;8.672;2023-04-24T08:59:07;99707.59;;;10.01;50.11
20656;BME280;10487;53.320;8.672;2023-04-24T09:02:28;99708.44;;;10.02;50.12
20656;BME280;10487;53.320;8.672;2023-04-24T09:05:48;99710.25;;;10.01;50.08
20656;BME280;10487;53.320;8.672;2023-04-24T09:09:10;99708.59;;;10.00;50.13
20656;BME280;10487;53.320;8.672;2023-04-24T09:12:30;99712.91;;;10.01;50.08
20656;BME280;10487;53.320;8.672;2023-04-24T09:15:49;99710.41;;;10.00;50.10
20656;BME280;10487;53.320;8.672;2023-04-24T09:19:08;99714.88;;;9.99;50.00
20656;BME280;10487;53.320;8.672;2023-04-24T09:22:31;99728.34;;;9.98;50.07
20656;BME280;10487;53.320;8.672;2023-04-24T09:25:54;99720.47;;;9.96;50.12
20656;BME280;10487;53.320;8.672;2023-04-24T09:29:17;99729.88;;;9.90;50.08
20656;BME280;10487;53.320;8.672;2023-04-24T09:32:36;99722.38;;;9.84;50.11
20656;BME280;10487;53.320;8.672;2023-04-24T09:35:56;99723.50;;;9.82;50.12
20656;BME280;10487;53.320;8.672;2023-04-24T09:39:16;99728.97;;;9.80;50.02
20656;BME280;10487;53.320;8.672;2023-04-24T09:42:35;99737.81;;;9.81;50.13
20656;BME280;10487;53.320;8.672;2023-04-24T09:45:58;99741.59;;;9.78;49.94
20656;BME280;10487;53.320;8.672;2023-04-24T09:49:25;99741.69;;;9.77;50.07
20656;BME280;10487;53.320;8.672;2023-04-24T09:52:46;99746.91;;;9.78;50.18
20656;BME280;10487;53.320;8.672;2023-04-24T09:56:09;99751.25;;;9.79;50.17
20656;BME280;10487;53.320;8.672;2023-04-24T09:59:29;99750.38;;;9.79;50.25
20656;BME280;10487;53.320;8.672;2023-04-24T10:02:55;99742.41;;;9.79;50.17
20656;BME280;10487;53.320;8.672;2023-04-24T10:06:14;99739.38;;;9.83;50.39
20656;BME280;10487;53.320;8.672;2023-04-24T10:09:34;99745.44;;;9.95;50.41
20656;BME280;10487;53.320;8.672;2023-04-24T10:12:54;99745.22;;;10.08;50.33
20656;BME280;10487;53.320;8.672;2023-04-24T10:16:14;99735.31;;;10.19;50.38
20656;BME280;10487;53.320;8.672;2023-04-24T10:19:34;99742.47;;;10.28;50.29
20656;BME280;10487;53.320;8.672;2023-04-24T10:22:55;99737.31;;;10.36;50.10
20656;BME280;10487;53.320;8.672;2023-04-24T10:26:15;99740.78;;;10.48;50.01
20656;BME280;10487;53.320;8.672;2023-04-24T10:29:38;99736.28;;;10.58;50.07
20656;BME280;10487;53.320;8.672;2023-04-24T10:32:59;99736.16;;;10.60;50.25
20656;BME280;10487;53.320;8.672;2023-04-24T10:36:18;99736.16;;;10.60;50.14
20656;BME280;10487;53.320;8.672;2023-04-24T10:39:40;99746.84;;;10.60;50.12
20656;BME280;10487;53.320;8.672;2023-04-24T10:43:02;99752.28;;;10.58;50.12
20656;BME280;10487;53.320;8.672;2023-04-24T10:46:28;99746.25;;;10.56;50.05
20656;BME280;10487;53.320;8.672;2023-04-24T10:49:50;99754.66;;;10.51;50.22
20656;BME280;10487;53.320;8.672;2023-04-24T10:53:30;99754.22;;;10.46;50.22
20656;BME280;10487;53.320;8.672;2023-04-24T10:56:50;99763.03;;;10.37;50.28
20656;BME280;10487;53.320;8.672;2023-04-24T11:00:14;99775.72;;;10.24;50.18
20656;BME280;10487;53.320;8.672;2023-04-24T11:03:35;99780.41;;;10.32;50.42
20656;BME280;10487;53.320;8.672;2023-04-24T11:06:55;99768.88;;;10.31;50.50
20656;BME280;10487;53.320;8.672;2023-04-24T11:10:26;99772.81;;;10.27;50.51
20656;BME280;10487;53.320;8.672;2023-04-24T11:17:30;99781.59;;;10.18;50.57
20656;BME280;10487;53.320;8.672;2023-04-24T11:20:50;99784.53;;;10.15;50.60
20656;BME280;10487;53.320;8.672;2023-04-24T11:24:26;99779.47;;;10.12;50.65
20656;BME280;10487;53.320;8.672;2023-04-24T11:27:46;99781.84;;;10.06;50.60
20656;BME280;10487;53.320;8.672;2023-04-24T11:31:34;99777.97;;;9.99;50.67
20656;BME280;10487;53.320;8.672;2023-04-24T11:34:59;99791.84;;;9.93;50.76
20656;BME280;10487;53.320;8.672;2023-04-24T11:38:19;99783.53;;;9.86;50.76
20656;BME280;10487;53.320;8.672;2023-04-24T11:41:38;99790.50;;;9.77;50.62
20656;BME280;10487;53.320;8.672;2023-04-24T11:44:57;99794.66;;;9.70;50.82
20656;BME280;10487;53.320;8.672;2023-04-24T11:48:19;99796.00;;;9.65;50.87
20656;BME280;10487;53.320;8.672;2023-04-24T11:51:39;99800.88;;;9.60;50.91
20656;BME280;10487;53.320;8.672;2023-04-24T11:54:59;99797.63;;;9.56;50.94
20656;BME280;10487;53.320;8.672;2023-04-24T11:58:21;99810.94;;;9.56;50.99
20656;BME280;10487;53.320;8.672;2023-04-24T12:01:47;99805.75;;;9.55;50.98
20656;BME280;10487;53.320;8.672;2023-04-24T12:05:08;99811.22;;;9.53;51.03
20656;BME280;10487;53.320;8.672;2023-04-24T12:08:27;99813.03;;;9.53;51.08
20656;BME280;10487;53.320;8.672;2023-04-24T12:11:56;99816.66;;;9.52;51.07
20656;BME280;10487;53.320;8.672;2023-04-24T12:15:19;99814.13;;;9.50;51.10
20656;BME280;10487;53.320;8.672;2023-04-24T12:18:43;99819.47;;;9.50;51.09
20656;BME280;10487;53.320;8.672;2023-04-24T12:22:05;99824.19;;;9.47;51.05
20656;BME280;10487;53.320;8.672;2023-04-24T12:25:29;99818.41;;;9.42;51.00
20656;BME280;10487;53.320;8.672;2023-04-24T12:28:49;99822.50;;;9.46;51.33
20656;BME280;10487;53.320;8.672;2023-04-24T12:32:16;99828.69;;;9.46;51.35
20656;BME280;10487;53.320;8.672;2023-04-24T12:35:35;99841.16;;;9.46;51.20
20656;BME280;10487;53.320;8.672;2023-04-24T12:38:54;99835.94;;;9.44;51.26
20656;BME280;10487;53.320;8.672;2023-04-24T12:42:13;99838.88;;;9.41;51.32
20656;BME280;10487;53.320;8.672;2023-04-24T12:45:32;99840.94;;;9.38;51.26
20656;BME280;10487;53.320;8.672;2023-04-24T12:48:51;99848.59;;;9.31;51.38
20656;BME280;10487;53.320;8.672;2023-04-24T12:52:11;99853.13;;;9.29;51.47
20656;BME280;10487;53.320;8.672;2023-04-24T12:55:30;99850.72;;;9.37;51.57
20656;BME280;10487;53.320;8.672;2023-04-24T12:58:49;99869.75;;;9.33;51.43
20656;BME280;10487;53.320;8.672;2023-04-24T13:02:11;99873.13;;;9.23;51.48
20656;BME280;10487;53.320;8.672;2023-04-24T13:05:30;99890.81;;;9.13;51.52
20656;BME280;10487;53.320;8.672;2023-04-24T13:08:49;99891.53;;;9.04;51.69
20656;BME280;10487;53.320;8.672;2023-04-24T13:12:10;99896.66;;;8.96;51.68
20656;BME280;10487;53.320;8.672;2023-04-24T13:15:30;99903.41;;;8.89;51.76
20656;BME280;10487;53.320;8.672;2023-04-24T13:18:49;99907.44;;;8.84;51.84
20656;BME280;10487;53.320;8.672;2023-04-24T13:22:10;99905.47;;;8.75;51.76
20656;BME280;10487;53.320;8.672;2023-04-24T13:25:35;99919.50;;;8.66;51.87
20656;BME280;10487;53.320;8.672;2023-04-24T13:28:54;99934.34;;;8.57;51.81
20656;BME280;10487;53.320;8.672;2023-04-24T13:32:14;99944.88;;;8.47;51.80
20656;BME280;10487;53.320;8.672;2023-04-24T13:35:33;99950.03;;;8.38;52.00
20656;BME280;10487;53.320;8.672;2023-04-24T13:38:52;99958.84;;;8.27;52.04
20656;BME280;10487;53.320;8.672;2023-04-24T13:42:11;99964.63;;;8.21;52.01
20656;BME280;10487;53.320;8.672;2023-04-24T13:45:31;99969.44;;;8.16;51.84
20656;BME280;10487;53.320;8.672;2023-04-24T13:48:51;99985.75;;;8.12;51.96
20656;BME280;10487;53.320;8.672;2023-04-24T13:52:10;99985.31;;;8.05;52.02
20656;BME280;10487;53.320;8.672;2023-04-24T13:55:29;99990.03;;;8.02;52.21
20656;BME280;10487;53.320;8.672;2023-04-24T13:58:48;99995.56;;;7.98;51.96
20656;BME280;10487;53.320;8.672;2023-04-24T14:02:08;99998.56;;;7.94;52.01
20656;BME280;10487;53.320;8.672;2023-04-24T14:05:26;99998.19;;;7.87;52.09
20656;BME280;10487;53.320;8.672;2023-04-24T14:08:46;100007.59;;;7.91;52.45
20656;BME280;10487;53.320;8.672;2023-04-24T14:12:05;100010.78;;;7.96;52.22
20656;BME280;10487;53.320;8.672;2023-04-24T14:15:25;100019.91;;;7.92;52.14
20656;BME280;10487;53.320;8.672;2023-04-24T14:18:44;100014.84;;;7.89;52.19
20656;BME280;10487;53.320;8.672;2023-04-24T14:22:04;100028.47;;;7.85;52.32
20656;BME280;10487;53.320;8.672;2023-04-24T14:25:23;100026.38;;;7.77;52.19
20656;BME280;10487;53.320;8.672;2023-04-24T14:28:42;100032.00;;;7.73;52.35
20656;BME280;10487;53.320;8.672;2023-04-24T14:32:01;100028.81;;;7.68;52.15
20656;BME280;10487;53.320;8.672;2023-04-24T14:35:20;100037.97;;;7.64;52.13
20656;BME280;10487;53.320;8.672;2023-04-24T14:38:39;100047.97;;;7.60;52.36
20656;BME280;10487;53.320;8.672;2023-04-24T14:41:59;100048.41;;;7.54;52.29
20656;BME280;10487;53.320;8.672;2023-04-24T14:45:19;100056.59;;;7.51;52.33
20656;BME280;10487;53.320;8.672;2023-04-24T14:48:38;100066.69;;;7.46;52.29
20656;BME280;10487;53.320;8.672;2023-04-24T14:51:57;100061.00;;;7.40;52.40
20656;BME280;10487;53.320;8.672;2023-04-24T14:55:17;100070.09;;;7.35;52.38
20656;BME280;10487;53.320;8.672;2023-04-24T14:58:36;100070.22;;;7.34;52.36
20656;BME280;10487;53.320;8.672;2023-04-24T15:01:55;100070.44;;;7.31;52.40
20656;BME280;10487;53.320;8.672;2023-04-24T15:05:16;100082.03;;;7.30;52.25
20656;BME280;10487;53.320;8.672;2023-04-24T15:08:35;100074.69;;;7.33;52.43
20656;BME280;10487;53.320;8.672;2023-04-24T15:11:54;100081.56;;;7.36;52.55
20656;BME280;10487;53.320;8.672;2023-04-24T15:15:13;100075.31;;;7.37;52.51
20656;BME280;10487;53.320;8.672;2023-04-24T15:18:32;100088.59;;;7.37;52.40
20656;BME280;10487;53.320;8.672;2023-04-24T15:21:51;100084.97;;;7.38;52.73
20656;BME280;10487;53.320;8.672;2023-04-24T15:25:10;100085.72;;;7.40;52.44
20656;BME280;10487;53.320;8.672;2023-04-24T15:28:29;100091.97;;;7.39;52.67
20656;BME280;10487;53.320;8.672;2023-04-24T15:31:48;100105.13;;;7.41;52.48
20656;BME280;10487;53.320;8.672;2023-04-24T15:35:08;100112.16;;;7.42;52.57
20656;BME280;10487;53.320;8.672;2023-04-24T15:38:27;100113.22;;;7.39;52.42
20656;BME280;10487;53.320;8.672;2023-04-24T15:41:46;100110.69;;;7.38;52.61
20656;BME280;10487;53.320;8.672;2023-04-24T15:45:06;100116.00;;;7.38;52.60
20656;BME280;10487;53.320;8.672;2023-04-24T15:48:27;100112.56;;;7.35;52.68
20656;BME280;10487;53.320;8.672;2023-04-24T15:51:46;100119.19;;;7.30;52.82
20656;BME280;10487;53.320;8.672;2023-04-24T15:55:05;100122.97;;;7.26;52.70
20656;BME280;10487;53.320;8.672;2023-04-24T15:58:25;100128.53;;;7.23;52.68
20656;BME280;10487;53.320;8.672;2023-04-24T16:01:44;100126.06;;;7.20;52.88
20656;BME280;10487;53.320;8.672;2023-04-24T16:05:03;100123.44;;;7.20;52.73
20656;BME280;10487;53.320;8.672;2023-04-24T16:08:22;100134.03;;;7.20;52.88
20656;BME280;10487;53.320;8.672;2023-04-24T16:11:41;100134.97;;;7.19;52.63
20656;BME280;10487;53.320;8.672;2023-04-24T16:15:00;100145.38;;;7.22;52.99
20656;BME280;10487;53.320;8.672;2023-04-24T16:18:19;100138.81;;;7.27;52.85
20656;BME280;10487;53.320;8.672;2023-04-24T16:21:39;100134.25;;;7.29;52.66
20656;BME280;10487;53.320;8.672;2023-04-24T16:24:58;100140.94;;;7.35;52.78
20656;BME280;10487;53.320;8.672;2023-04-24T16:28:17;100145.38;;;7.34;52.80
20656;BME280;10487;53.320;8.672;2023-04-24T16:31:36;100146.13;;;7.37;52.95
20656;BME280;10487;53.320;8.672;2023-04-24T16:34:55;100145.91;;;7.40;52.85
20656;BME280;10487;53.320;8.672;2023-04-24T16:38:14;100162.59;;;7.42;52.99
20656;BME280;10487;53.320;8.672;2023-04-24T16:41:34;100159.94;;;7.42;52.88
20656;BME280;10487;53.320;8.672;2023-04-24T16:44:53;100160.13;;;7.39;52.93
20656;BME280;10487;53.320;8.672;2023-04-24T16:48:12;100165.56;;;7.37;53.01
20656;BME280;10487;53.320;8.672;2023-04-24T16:51:31;100153.22;;;7.36;52.97
20656;BME280;10487;53.320;8.672;2023-04-24T16:54:51;100163.84;;;7.36;52.94
20656;BME280;10487;53.320;8.672;2023-04-24T16:58:10;100168.31;;;7.35;52.79
20656;BME280;10487;53.320;8.672;2023-04-24T17:01:29;100173.84;;;7.32;52.76
20656;BME280;10487;53.320;8.672;2023-04-24T17:04:48;100177.56;;;7.30;52.99
20656;BME280;10487;53.320;8.672;2023-04-24T17:08:07;100169.91;;;7.25;53.09
20656;BME280;10487;53.320;8.672;2023-04-24T17:11:27;100170.13;;;7.22;53.06
20656;BME280;10487;53.320;8.672;2023-04-24T17:14:46;100175.53;;;7.21;53.03
20656;BME280;10487;53.320;8.672;2023-04-24T17:18:05;100172.88;;;7.21;52.97
20656;BME280;10487;53.320;8.672;2023-04-24T17:21:24;100178.41;;;7.18;53.03
20656;BME280;10487;53.320;8.672;2023-04-24T17:24:44;100181.88;;;7.18;53.06
20656;BME280;10487;53.320;8.672;2023-04-24T17:28:14;100175.75;;;7.18;53.27
20656;BME280;10487;53.320;8.672;2023-04-24T17:31:41;100176.69;;;7.17;53.21
20656;BME280;10487;53.320;8.672;2023-04-24T17:35:00;100174.78;;;7.19;53.10
20656;BME280;10487;53.320;8.672;2023-04-24T17:38:20;100179.22;;;7.18;53.04
20656;BME280;10487;53.320;8.672;2023-04-24T17:41:39;100172.13;;;7.19;53.21
20656;BME280;10487;53.320;8.672;2023-04-24T17:44:58;100176.69;;;7.17;52.99
20656;BME280;10487;53.320;8.672;2023-04-24T17:48:18;100184.00;;;7.13;53.43